< Typhoon 196701 1967 Season Typhoon 196703 >
Typhoon 196702 (SALLY)
General InformationTrack Information on Google Maps || Disaster Info.ResourceGoogle EarthGE AnimationAtom FeedGeoJSON
Detalied Best Track (Time Zone = UTC)
Year Month Day Hour Lat. Long. Pressure (hPa) Wind (kt) Class Image Chart
1967 2 28 00 1.5 144.5 1006 0 2 -- Chart
1967 2 28 06 2.3 142.8 1006 0 2 -- Chart
1967 2 28 12 3.4 141.2 1006 0 2 -- Chart
1967 2 28 18 4.2 139.8 1006 0 2 -- Chart
1967 3 1 00 5.0 138.2 1004 0 2 -- Chart
1967 3 1 06 5.8 136.7 1002 0 2 -- Chart
1967 3 1 12 6.7 135.2 1000 0 2 -- Chart
1967 3 1 18 7.5 133.6 990 0 9 -- Chart
1967 3 2 00 8.5 132.0 980 0 9 -- Chart
1967 3 2 06 9.3 130.7 980 0 9 -- Chart
1967 3 2 12 9.8 129.5 980 0 9 -- Chart
1967 3 2 18 9.8 127.8 985 0 9 -- Chart
1967 3 3 00 9.6 126.4 988 0 9 -- Chart
1967 3 3 06 10.0 125.0 988 0 9 -- Chart
1967 3 3 12 10.0 123.8 988 0 9 -- Chart
1967 3 3 18 10.2 122.5 990 0 9 -- Chart
1967 3 4 00 10.3 121.4 1000 0 9 -- Chart
1967 3 4 06 10.6 119.5 1000 0 9 -- Chart
1967 3 4 12 10.6 118.0 1000 0 9 -- Chart
1967 3 4 18 10.6 116.8 1002 0 9 -- Chart
1967 3 5 00 10.7 116.5 1002 0 2 -- Chart
1967 3 5 06 10.8 116.0 1002 0 2 -- Chart
1967 3 5 12 10.8 115.6 1004 0 2 -- Chart
1967 3 5 18 10.5 115.3 1004 0 2 -- Chart
1967 3 6 00 9.4 115.2 1004 0 2 -- Chart
1967 3 6 06 8.3 115.3 1004 0 2 -- Chart
1967 3 6 12 7.5 115.1 1004 0 2 -- Chart
1967 3 6 18 7.0 114.8 1004 0 2 -- Chart
1967 3 7 00 6.4 114.3 1008 0 2 -- Chart
Japan Meteorological Agency Best Track Data | Correction Date : 1989-06-01
< Typhoon 196701 1967 Season Typhoon 196703 >

Help